sensor_id;sensor_type;location;lat;lon;timestamp;P1;durP1;ratioP1;P2;durP2;ratioP2
11537;SDS011;50159;49.426;11.182;2022-08-03T00:00:28;4.67;;;3.57;;
11537;SDS011;50159;49.426;11.182;2022-08-03T00:02:54;3.70;;;3.50;;
11537;SDS011;50159;49.426;11.182;2022-08-03T00:05:22;4.30;;;4.00;;
11537;SDS011;50159;49.426;11.182;2022-08-03T00:07:49;3.93;;;3.73;;
11537;SDS011;50159;49.426;11.182;2022-08-03T00:10:15;4.97;;;3.97;;
11537;SDS011;50159;49.426;11.182;2022-08-03T00:12:43;7.87;;;3.60;;
11537;SDS011;50159;49.426;11.182;2022-08-03T00:15:10;3.77;;;3.57;;
11537;SDS011;50159;49.426;11.182;2022-08-03T00:17:42;9.47;;;3.87;;
11537;SDS011;50159;49.426;11.182;2022-08-03T00:20:19;4.13;;;3.83;;
11537;SDS011;50159;49.426;11.182;2022-08-03T00:22:47;3.87;;;3.73;;
11537;SDS011;50159;49.426;11.182;2022-08-03T00:25:17;4.60;;;4.27;;
11537;SDS011;50159;49.426;11.182;2022-08-03T00:27:44;3.93;;;3.70;;
11537;SDS011;50159;49.426;11.182;2022-08-03T00:30:13;3.73;;;3.53;;
11537;SDS011;50159;49.426;11.182;2022-08-03T00:32:42;3.53;;;3.33;;
11537;SDS011;50159;49.426;11.182;2022-08-03T00:35:10;3.90;;;3.70;;
11537;SDS011;50159;49.426;11.182;2022-08-03T00:37:57;4.07;;;3.60;;
11537;SDS011;50159;49.426;11.182;2022-08-03T00:40:25;3.30;;;3.20;;
11537;SDS011;50159;49.426;11.182;2022-08-03T00:42:54;3.57;;;3.37;;
11537;SDS011;50159;49.426;11.182;2022-08-03T00:45:32;3.53;;;3.40;;
11537;SDS011;50159;49.426;11.182;2022-08-03T00:48:02;3.50;;;3.30;;
11537;SDS011;50159;49.426;11.182;2022-08-03T00:50:51;3.40;;;3.20;;
11537;SDS011;50159;49.426;11.182;2022-08-03T00:53:19;4.10;;;3.90;;
11537;SDS011;50159;49.426;11.182;2022-08-03T00:55:47;3.70;;;3.50;;
11537;SDS011;50159;49.426;11.182;2022-08-03T00:58:14;3.17;;;3.07;;
11537;SDS011;50159;49.426;11.182;2022-08-03T01:00:41;3.60;;;3.40;;
11537;SDS011;50159;49.426;11.182;2022-08-03T01:03:10;3.60;;;3.40;;
11537;SDS011;50159;49.426;11.182;2022-08-03T01:08:19;3.13;;;2.93;;
11537;SDS011;50159;49.426;11.182;2022-08-03T01:11:07;3.77;;;3.57;;
11537;SDS011;50159;49.426;11.182;2022-08-03T01:13:48;3.50;;;3.37;;
11537;SDS011;50159;49.426;11.182;2022-08-03T01:20:12;3.73;;;3.53;;
11537;SDS011;50159;49.426;11.182;2022-08-03T01:32:02;3.93;;;3.73;;
11537;SDS011;50159;49.426;11.182;2022-08-03T01:35:18;4.30;;;4.00;;
11537;SDS011;50159;49.426;11.182;2022-08-03T01:38:02;3.60;;;3.40;;
11537;SDS011;50159;49.426;11.182;2022-08-03T01:40:35;3.90;;;3.70;;
11537;SDS011;50159;49.426;11.182;2022-08-03T01:43:06;3.67;;;3.47;;
11537;SDS011;50159;49.426;11.182;2022-08-03T01:45:39;4.83;;;3.13;;
11537;SDS011;50159;49.426;11.182;2022-08-03T01:48:08;3.77;;;3.57;;
11537;SDS011;50159;49.426;11.182;2022-08-03T01:50:40;3.70;;;3.50;;
11537;SDS011;50159;49.426;11.182;2022-08-03T01:53:11;3.50;;;3.30;;
11537;SDS011;50159;49.426;11.182;2022-08-03T01:55:40;3.70;;;3.50;;
11537;SDS011;50159;49.426;11.182;2022-08-03T01:58:11;4.10;;;3.90;;
11537;SDS011;50159;49.426;11.182;2022-08-03T02:00:41;3.70;;;3.60;;
11537;SDS011;50159;49.426;11.182;2022-08-03T02:03:11;4.10;;;3.83;;
11537;SDS011;50159;49.426;11.182;2022-08-03T02:05:40;4.10;;;3.80;;
11537;SDS011;50159;49.426;11.182;2022-08-03T02:08:12;3.47;;;3.37;;
11537;SDS011;50159;49.426;11.182;2022-08-03T02:10:43;4.03;;;3.83;;
11537;SDS011;50159;49.426;11.182;2022-08-03T02:13:12;3.80;;;3.50;;
11537;SDS011;50159;49.426;11.182;2022-08-03T02:15:44;3.87;;;3.67;;
11537;SDS011;50159;49.426;11.182;2022-08-03T02:18:12;3.70;;;3.50;;
11537;SDS011;50159;49.426;11.182;2022-08-03T02:20:41;3.53;;;3.37;;
11537;SDS011;50159;49.426;11.182;2022-08-03T02:23:09;3.80;;;3.60;;
11537;SDS011;50159;49.426;11.182;2022-08-03T02:25:38;3.90;;;3.70;;
11537;SDS011;50159;49.426;11.182;2022-08-03T02:28:18;3.50;;;3.30;;
11537;SDS011;50159;49.426;11.182;2022-08-03T02:30:52;4.23;;;4.03;;
11537;SDS011;50159;49.426;11.182;2022-08-03T02:33:29;3.73;;;3.53;;
11537;SDS011;50159;49.426;11.182;2022-08-03T02:36:03;3.30;;;3.20;;
11537;SDS011;50159;49.426;11.182;2022-08-03T02:38:34;3.17;;;3.07;;
11537;SDS011;50159;49.426;11.182;2022-08-03T02:41:06;3.60;;;3.50;;
11537;SDS011;50159;49.426;11.182;2022-08-03T02:43:42;3.43;;;3.33;;
11537;SDS011;50159;49.426;11.182;2022-08-03T02:46:38;3.70;;;3.50;;
11537;SDS011;50159;49.426;11.182;2022-08-03T02:49:10;4.60;;;4.30;;
11537;SDS011;50159;49.426;11.182;2022-08-03T02:52:01;3.70;;;3.47;;
11537;SDS011;50159;49.426;11.182;2022-08-03T02:54:37;3.93;;;3.73;;
11537;SDS011;50159;49.426;11.182;2022-08-03T02:57:06;3.43;;;3.23;;
11537;SDS011;50159;49.426;11.182;2022-08-03T02:59:35;3.87;;;3.67;;
11537;SDS011;50159;49.426;11.182;2022-08-03T03:02:05;4.00;;;3.80;;
11537;SDS011;50159;49.426;11.182;2022-08-03T03:04:33;4.03;;;3.83;;
11537;SDS011;50159;49.426;11.182;2022-08-03T03:07:01;3.83;;;3.53;;
11537;SDS011;50159;49.426;11.182;2022-08-03T03:09:30;4.10;;;3.90;;
11537;SDS011;50159;49.426;11.182;2022-08-03T03:12:09;4.37;;;4.17;;
11537;SDS011;50159;49.426;11.182;2022-08-03T03:14:38;4.07;;;3.77;;
11537;SDS011;50159;49.426;11.182;2022-08-03T03:17:06;3.93;;;3.73;;
11537;SDS011;50159;49.426;11.182;2022-08-03T03:19:37;3.80;;;3.60;;
11537;SDS011;50159;49.426;11.182;2022-08-03T03:22:06;4.07;;;3.77;;
11537;SDS011;50159;49.426;11.182;2022-08-03T03:24:35;3.80;;;3.60;;
11537;SDS011;50159;49.426;11.182;2022-08-03T03:27:04;3.90;;;3.53;;
11537;SDS011;50159;49.426;11.182;2022-08-03T03:29:31;4.33;;;4.03;;
11537;SDS011;50159;49.426;11.182;2022-08-03T03:32:04;4.50;;;4.20;;
11537;SDS011;50159;49.426;11.182;2022-08-03T03:34:34;4.10;;;3.90;;
11537;SDS011;50159;49.426;11.182;2022-08-03T03:37:02;3.90;;;3.60;;
11537;SDS011;50159;49.426;11.182;2022-08-03T03:39:30;4.07;;;3.87;;
11537;SDS011;50159;49.426;11.182;2022-08-03T03:41:57;4.07;;;3.77;;
11537;SDS011;50159;49.426;11.182;2022-08-03T03:44:29;3.87;;;3.67;;
11537;SDS011;50159;49.426;11.182;2022-08-03T03:46:56;3.90;;;3.70;;
11537;SDS011;50159;49.426;11.182;2022-08-03T03:49:24;3.77;;;3.57;;
11537;SDS011;50159;49.426;11.182;2022-08-03T03:51:54;4.27;;;3.97;;
11537;SDS011;50159;49.426;11.182;2022-08-03T03:54:21;3.60;;;3.40;;
11537;SDS011;50159;49.426;11.182;2022-08-03T03:56:54;4.00;;;3.70;;
11537;SDS011;50159;49.426;11.182;2022-08-03T03:59:21;3.33;;;3.20;;
11537;SDS011;50159;49.426;11.182;2022-08-03T04:01:48;3.93;;;3.73;;
11537;SDS011;50159;49.426;11.182;2022-08-03T04:04:24;4.70;;;4.30;;
11537;SDS011;50159;49.426;11.182;2022-08-03T04:07:09;4.10;;;3.73;;
11537;SDS011;50159;49.426;11.182;2022-08-03T04:09:54;3.97;;;3.63;;
11537;SDS011;50159;49.426;11.182;2022-08-03T04:12:41;3.67;;;3.37;;
11537;SDS011;50159;49.426;11.182;2022-08-03T04:15:19;3.77;;;3.57;;
11537;SDS011;50159;49.426;11.182;2022-08-03T04:17:49;3.53;;;3.33;;
11537;SDS011;50159;49.426;11.182;2022-08-03T04:20:21;3.47;;;3.37;;
11537;SDS011;50159;49.426;11.182;2022-08-03T04:22:51;3.70;;;3.50;;
11537;SDS011;50159;49.426;11.182;2022-08-03T04:25:21;3.77;;;3.57;;
11537;SDS011;50159;49.426;11.182;2022-08-03T04:27:53;3.37;;;3.27;;
11537;SDS011;50159;49.426;11.182;2022-08-03T04:30:44;3.67;;;3.47;;
11537;SDS011;50159;49.426;11.182;2022-08-03T04:33:15;3.50;;;3.30;;
11537;SDS011;50159;49.426;11.182;2022-08-03T04:35:45;3.83;;;3.63;;
11537;SDS011;50159;49.426;11.182;2022-08-03T04:38:28;3.33;;;3.23;;
11537;SDS011;50159;49.426;11.182;2022-08-03T04:41:03;3.80;;;3.60;;
11537;SDS011;50159;49.426;11.182;2022-08-03T04:43:32;4.70;;;3.60;;
11537;SDS011;50159;49.426;11.182;2022-08-03T04:46:01;3.80;;;3.50;;
11537;SDS011;50159;49.426;11.182;2022-08-03T04:48:29;3.93;;;3.70;;
11537;SDS011;50159;49.426;11.182;2022-08-03T04:50:56;3.70;;;3.50;;
11537;SDS011;50159;49.426;11.182;2022-08-03T04:53:25;3.20;;;3.10;;
11537;SDS011;50159;49.426;11.182;2022-08-03T04:55:53;3.73;;;3.53;;
11537;SDS011;50159;49.426;11.182;2022-08-03T04:58:20;3.60;;;3.40;;
11537;SDS011;50159;49.426;11.182;2022-08-03T05:00:47;3.70;;;3.50;;
11537;SDS011;50159;49.426;11.182;2022-08-03T05:03:16;3.87;;;3.67;;
11537;SDS011;50159;49.426;11.182;2022-08-03T05:05:49;3.50;;;3.30;;
11537;SDS011;50159;49.426;11.182;2022-08-03T05:08:18;3.97;;;3.77;;
11537;SDS011;50159;49.426;11.182;2022-08-03T05:10:53;3.30;;;3.20;;
11537;SDS011;50159;49.426;11.182;2022-08-03T05:13:24;3.60;;;3.30;;
11537;SDS011;50159;49.426;11.182;2022-08-03T05:15:54;3.87;;;3.57;;
11537;SDS011;50159;49.426;11.182;2022-08-03T05:18:21;3.70;;;3.50;;
11537;SDS011;50159;49.426;11.182;2022-08-03T05:20:48;3.40;;;3.13;;
11537;SDS011;50159;49.426;11.182;2022-08-03T05:23:14;3.73;;;3.43;;
11537;SDS011;50159;49.426;11.182;2022-08-03T05:25:41;3.23;;;3.13;;
11537;SDS011;50159;49.426;11.182;2022-08-03T05:28:15;3.63;;;3.43;;
11537;SDS011;50159;49.426;11.182;2022-08-03T05:30:42;3.43;;;3.30;;
11537;SDS011;50159;49.426;11.182;2022-08-03T05:33:09;3.07;;;2.97;;
11537;SDS011;50159;49.426;11.182;2022-08-03T05:35:36;3.73;;;3.53;;
11537;SDS011;50159;49.426;11.182;2022-08-03T05:38:24;3.23;;;3.07;;
11537;SDS011;50159;49.426;11.182;2022-08-03T05:40:59;3.23;;;3.03;;
11537;SDS011;50159;49.426;11.182;2022-08-03T05:43:46;3.60;;;3.40;;
11537;SDS011;50159;49.426;11.182;2022-08-03T05:46:13;4.03;;;3.73;;
11537;SDS011;50159;49.426;11.182;2022-08-03T05:48:40;3.47;;;3.37;;
11537;SDS011;50159;49.426;11.182;2022-08-03T05:51:08;3.43;;;3.23;;
11537;SDS011;50159;49.426;11.182;2022-08-03T05:53:36;3.63;;;3.43;;
11537;SDS011;50159;49.426;11.182;2022-08-03T05:56:04;3.20;;;3.10;;
11537;SDS011;50159;49.426;11.182;2022-08-03T05:58:46;3.00;;;2.90;;
11537;SDS011;50159;49.426;11.182;2022-08-03T06:01:14;2.87;;;2.77;;
11537;SDS011;50159;49.426;11.182;2022-08-03T06:03:43;2.93;;;2.83;;
11537;SDS011;50159;49.426;11.182;2022-08-03T06:06:11;2.77;;;2.67;;
11537;SDS011;50159;49.426;11.182;2022-08-03T06:08:38;3.30;;;3.10;;
11537;SDS011;50159;49.426;11.182;2022-08-03T06:11:07;2.70;;;2.60;;
11537;SDS011;50159;49.426;11.182;2022-08-03T06:13:34;2.70;;;2.60;;
11537;SDS011;50159;49.426;11.182;2022-08-03T06:16:01;2.37;;;2.37;;
11537;SDS011;50159;49.426;11.182;2022-08-03T06:18:29;2.20;;;2.10;;
11537;SDS011;50159;49.426;11.182;2022-08-03T06:20:56;2.23;;;2.23;;
11537;SDS011;50159;49.426;11.182;2022-08-03T06:23:34;2.70;;;2.50;;
11537;SDS011;50159;49.426;11.182;2022-08-03T06:26:20;2.83;;;2.63;;
11537;SDS011;50159;49.426;11.182;2022-08-03T06:28:47;2.47;;;2.37;;
11537;SDS011;50159;49.426;11.182;2022-08-03T06:31:19;2.90;;;2.80;;
11537;SDS011;50159;49.426;11.182;2022-08-03T06:33:59;3.00;;;2.90;;
11537;SDS011;50159;49.426;11.182;2022-08-03T06:36:50;3.10;;;2.90;;
11537;SDS011;50159;49.426;11.182;2022-08-03T06:39:18;2.70;;;2.60;;
11537;SDS011;50159;49.426;11.182;2022-08-03T06:41:48;2.70;;;2.50;;
11537;SDS011;50159;49.426;11.182;2022-08-03T06:44:16;2.60;;;2.50;;
11537;SDS011;50159;49.426;11.182;2022-08-03T06:46:43;2.13;;;2.13;;
11537;SDS011;50159;49.426;11.182;2022-08-03T06:49:10;2.47;;;2.37;;
11537;SDS011;50159;49.426;11.182;2022-08-03T06:51:38;2.50;;;2.40;;
11537;SDS011;50159;49.426;11.182;2022-08-03T06:54:24;3.03;;;2.70;;
11537;SDS011;50159;49.426;11.182;2022-08-03T06:56:52;2.87;;;2.70;;
11537;SDS011;50159;49.426;11.182;2022-08-03T06:59:19;2.50;;;2.40;;
11537;SDS011;50159;49.426;11.182;2022-08-03T07:02:06;2.40;;;2.30;;
11537;SDS011;50159;49.426;11.182;2022-08-03T07:04:34;2.30;;;2.20;;
11537;SDS011;50159;49.426;11.182;2022-08-03T07:07:01;2.30;;;2.20;;
11537;SDS011;50159;49.426;11.182;2022-08-03T07:09:28;2.17;;;2.07;;
11537;SDS011;50159;49.426;11.182;2022-08-03T07:11:55;2.70;;;2.60;;
11537;SDS011;50159;49.426;11.182;2022-08-03T07:14:22;1.87;;;1.80;;
11537;SDS011;50159;49.426;11.182;2022-08-03T07:16:49;5.13;;;2.60;;
11537;SDS011;50159;49.426;11.182;2022-08-03T07:19:16;3.23;;;2.10;;
11537;SDS011;50159;49.426;11.182;2022-08-03T07:21:42;2.10;;;2.00;;
11537;SDS011;50159;49.426;11.182;2022-08-03T07:24:10;2.60;;;2.37;;
11537;SDS011;50159;49.426;11.182;2022-08-03T07:26:37;1.87;;;1.87;;
11537;SDS011;50159;49.426;11.182;2022-08-03T07:29:04;2.70;;;2.50;;
11537;SDS011;50159;49.426;11.182;2022-08-03T07:31:40;2.87;;;2.37;;
11537;SDS011;50159;49.426;11.182;2022-08-03T07:34:07;2.73;;;2.53;;
11537;SDS011;50159;49.426;11.182;2022-08-03T07:36:34;2.07;;;1.97;;
11537;SDS011;50159;49.426;11.182;2022-08-03T07:39:01;2.50;;;2.40;;
11537;SDS011;50159;49.426;11.182;2022-08-03T07:41:43;4.03;;;2.30;;
11537;SDS011;50159;49.426;11.182;2022-08-03T07:44:11;2.50;;;2.40;;
11537;SDS011;50159;49.426;11.182;2022-08-03T07:46:38;2.80;;;2.43;;
11537;SDS011;50159;49.426;11.182;2022-08-03T07:49:05;2.13;;;2.03;;
11537;SDS011;50159;49.426;11.182;2022-08-03T07:51:32;2.50;;;2.40;;
11537;SDS011;50159;49.426;11.182;2022-08-03T07:53:59;2.60;;;2.40;;
11537;SDS011;50159;49.426;11.182;2022-08-03T07:56:26;2.17;;;2.13;;
11537;SDS011;50159;49.426;11.182;2022-08-03T07:58:54;4.60;;;2.23;;
11537;SDS011;50159;49.426;11.182;2022-08-03T08:01:21;2.40;;;2.30;;
11537;SDS011;50159;49.426;11.182;2022-08-03T08:03:49;2.40;;;2.30;;
11537;SDS011;50159;49.426;11.182;2022-08-03T08:06:19;2.23;;;2.17;;
11537;SDS011;50159;49.426;11.182;2022-08-03T08:08:47;2.23;;;2.00;;
11537;SDS011;50159;49.426;11.182;2022-08-03T08:11:13;2.27;;;2.17;;
11537;SDS011;50159;49.426;11.182;2022-08-03T08:13:40;2.80;;;2.40;;
11537;SDS011;50159;49.426;11.182;2022-08-03T08:16:07;2.17;;;2.07;;
11537;SDS011;50159;49.426;11.182;2022-08-03T08:18:34;2.07;;;1.97;;
11537;SDS011;50159;49.426;11.182;2022-08-03T08:21:01;2.20;;;2.10;;
11537;SDS011;50159;49.426;11.182;2022-08-03T08:23:28;1.97;;;1.87;;
11537;SDS011;50159;49.426;11.182;2022-08-03T08:26:09;2.30;;;2.20;;
11537;SDS011;50159;49.426;11.182;2022-08-03T08:28:37;1.90;;;1.80;;
11537;SDS011;50159;49.426;11.182;2022-08-03T08:31:04;1.80;;;1.80;;
11537;SDS011;50159;49.426;11.182;2022-08-03T08:33:31;3.83;;;2.50;;
11537;SDS011;50159;49.426;11.182;2022-08-03T08:36:19;1.83;;;1.80;;
11537;SDS011;50159;49.426;11.182;2022-08-03T08:38:46;2.30;;;2.20;;
11537;SDS011;50159;49.426;11.182;2022-08-03T08:41:14;1.90;;;1.80;;
11537;SDS011;50159;49.426;11.182;2022-08-03T08:43:41;2.37;;;2.17;;
11537;SDS011;50159;49.426;11.182;2022-08-03T08:46:12;1.93;;;1.83;;
11537;SDS011;50159;49.426;11.182;2022-08-03T08:48:49;1.80;;;1.80;;
11537;SDS011;50159;49.426;11.182;2022-08-03T08:51:18;3.90;;;2.80;;
11537;SDS011;50159;49.426;11.182;2022-08-03T08:53:50;3.03;;;2.03;;
11537;SDS011;50159;49.426;11.182;2022-08-03T08:56:19;2.00;;;1.90;;
11537;SDS011;50159;49.426;11.182;2022-08-03T08:58:50;2.17;;;2.10;;
11537;SDS011;50159;49.426;11.182;2022-08-03T09:01:21;2.23;;;2.13;;
11537;SDS011;50159;49.426;11.182;2022-08-03T09:03:48;1.77;;;1.67;;
11537;SDS011;50159;49.426;11.182;2022-08-03T09:06:16;2.00;;;1.90;;
11537;SDS011;50159;49.426;11.182;2022-08-03T09:08:43;2.07;;;1.97;;
11537;SDS011;50159;49.426;11.182;2022-08-03T09:11:10;1.90;;;1.80;;
11537;SDS011;50159;49.426;11.182;2022-08-03T09:13:37;1.70;;;1.70;;
11537;SDS011;50159;49.426;11.182;2022-08-03T09:16:12;1.50;;;1.50;;
11537;SDS011;50159;49.426;11.182;2022-08-03T09:18:52;3.03;;;1.77;;
11537;SDS011;50159;49.426;11.182;2022-08-03T09:21:22;3.20;;;2.10;;
11537;SDS011;50159;49.426;11.182;2022-08-03T09:23:59;2.50;;;2.10;;
11537;SDS011;50159;49.426;11.182;2022-08-03T09:26:33;2.93;;;1.80;;
11537;SDS011;50159;49.426;11.182;2022-08-03T09:29:07;3.00;;;2.47;;
11537;SDS011;50159;49.426;11.182;2022-08-03T09:31:44;1.90;;;1.80;;
11537;SDS011;50159;49.426;11.182;2022-08-03T09:34:13;2.00;;;1.90;;
11537;SDS011;50159;49.426;11.182;2022-08-03T09:36:43;1.70;;;1.70;;
11537;SDS011;50159;49.426;11.182;2022-08-03T09:39:16;1.63;;;1.63;;
11537;SDS011;50159;49.426;11.182;2022-08-03T09:42:05;1.67;;;1.67;;
11537;SDS011;50159;49.426;11.182;2022-08-03T09:44:34;1.63;;;1.63;;
11537;SDS011;50159;49.426;11.182;2022-08-03T09:47:09;2.00;;;1.70;;
11537;SDS011;50159;49.426;11.182;2022-08-03T09:49:39;1.57;;;1.53;;
11537;SDS011;50159;49.426;11.182;2022-08-03T09:52:28;1.80;;;1.70;;
11537;SDS011;50159;49.426;11.182;2022-08-03T09:55:15;1.80;;;1.70;;
11537;SDS011;50159;49.426;11.182;2022-08-03T09:58:05;1.70;;;1.70;;
11537;SDS011;50159;49.426;11.182;2022-08-03T10:00:50;1.93;;;1.70;;
11537;SDS011;50159;49.426;11.182;2022-08-03T10:03:34;1.80;;;1.70;;
11537;SDS011;50159;49.426;11.182;2022-08-03T10:06:23;2.10;;;2.00;;
11537;SDS011;50159;49.426;11.182;2022-08-03T10:11:53;1.63;;;1.63;;
11537;SDS011;50159;49.426;11.182;2022-08-03T10:14:20;1.60;;;1.60;;
11537;SDS011;50159;49.426;11.182;2022-08-03T10:16:48;1.80;;;1.40;;
11537;SDS011;50159;49.426;11.182;2022-08-03T10:19:15;1.60;;;1.60;;
11537;SDS011;50159;49.426;11.182;2022-08-03T10:21:45;1.87;;;1.80;;
11537;SDS011;50159;49.426;11.182;2022-08-03T10:24:19;1.30;;;1.30;;
11537;SDS011;50159;49.426;11.182;2022-08-03T10:26:58;1.50;;;1.50;;
11537;SDS011;50159;49.426;11.182;2022-08-03T10:29:29;1.50;;;1.50;;
11537;SDS011;50159;49.426;11.182;2022-08-03T10:32:03;1.67;;;1.60;;
11537;SDS011;50159;49.426;11.182;2022-08-03T10:34:44;1.63;;;1.63;;
11537;SDS011;50159;49.426;11.182;2022-08-03T10:37:25;1.50;;;1.50;;
11537;SDS011;50159;49.426;11.182;2022-08-03T10:39:57;1.20;;;1.20;;
11537;SDS011;50159;49.426;11.182;2022-08-03T10:42:26;1.20;;;1.20;;
11537;SDS011;50159;49.426;11.182;2022-08-03T10:45:06;1.77;;;1.30;;
11537;SDS011;50159;49.426;11.182;2022-08-03T10:47:43;1.38;;;1.38;;
11537;SDS011;50159;49.426;11.182;2022-08-03T10:50:14;1.30;;;1.30;;
11537;SDS011;50159;49.426;11.182;2022-08-03T10:53:03;1.20;;;1.20;;
11537;SDS011;50159;49.426;11.182;2022-08-03T10:55:39;1.20;;;1.20;;
11537;SDS011;50159;49.426;11.182;2022-08-03T11:04:26;1.00;;;1.00;;
11537;SDS011;50159;49.426;11.182;2022-08-03T11:09:47;1.20;;;1.20;;
11537;SDS011;50159;49.426;11.182;2022-08-03T11:15:00;1.20;;;1.20;;
11537;SDS011;50159;49.426;11.182;2022-08-03T11:17:32;1.20;;;1.20;;
11537;SDS011;50159;49.426;11.182;2022-08-03T11:23:41;1.20;;;1.17;;
11537;SDS011;50159;49.426;11.182;2022-08-03T11:26:29;1.00;;;1.00;;
11537;SDS011;50159;49.426;11.182;2022-08-03T11:29:06;0.90;;;0.90;;
11537;SDS011;50159;49.426;11.182;2022-08-03T11:31:56;1.90;;;1.47;;
11537;SDS011;50159;49.426;11.182;2022-08-03T11:34:23;10.13;;;9.57;;
11537;SDS011;50159;49.426;11.182;2022-08-03T11:39:51;7.87;;;7.27;;
11537;SDS011;50159;49.426;11.182;2022-08-03T11:44:51;3.43;;;3.30;;
11537;SDS011;50159;49.426;11.182;2022-08-03T11:47:20;18.47;;;17.10;;
11537;SDS011;50159;49.426;11.182;2022-08-03T11:49:49;26.17;;;24.03;;
11537;SDS011;50159;49.426;11.182;2022-08-03T11:52:20;31.93;;;29.10;;
11537;SDS011;50159;49.426;11.182;2022-08-03T11:54:54;58.90;;;53.60;;
11537;SDS011;50159;49.426;11.182;2022-08-03T11:57:32;186.63;;;167.07;;
11537;SDS011;50159;49.426;11.182;2022-08-03T12:00:21;403.73;;;362.40;;
11537;SDS011;50159;49.426;11.182;2022-08-03T12:03:04;380.20;;;341.33;;
11537;SDS011;50159;49.426;11.182;2022-08-03T12:08:27;3.83;;;3.40;;
11537;SDS011;50159;49.426;11.182;2022-08-03T12:10:59;1.20;;;1.20;;
11537;SDS011;50159;49.426;11.182;2022-08-03T12:13:35;1.37;;;1.37;;
11537;SDS011;50159;49.426;11.182;2022-08-03T12:16:26;2.00;;;1.27;;
11537;SDS011;50159;49.426;11.182;2022-08-03T12:18:54;3.43;;;1.03;;
11537;SDS011;50159;49.426;11.182;2022-08-03T12:21:28;1.40;;;1.40;;
11537;SDS011;50159;49.426;11.182;2022-08-03T12:23:56;1.00;;;1.00;;
11537;SDS011;50159;49.426;11.182;2022-08-03T12:26:26;0.93;;;0.93;;
11537;SDS011;50159;49.426;11.182;2022-08-03T12:28:55;0.90;;;0.90;;
11537;SDS011;50159;49.426;11.182;2022-08-03T12:31:23;1.17;;;1.07;;
11537;SDS011;50159;49.426;11.182;2022-08-03T12:33:55;2.20;;;1.07;;
11537;SDS011;50159;49.426;11.182;2022-08-03T12:36:22;1.47;;;1.03;;
11537;SDS011;50159;49.426;11.182;2022-08-03T12:38:55;1.03;;;1.03;;
11537;SDS011;50159;49.426;11.182;2022-08-03T12:44:06;1.00;;;1.00;;
11537;SDS011;50159;49.426;11.182;2022-08-03T12:46:35;1.10;;;1.10;;
11537;SDS011;50159;49.426;11.182;2022-08-03T12:49:13;1.70;;;1.33;;
11537;SDS011;50159;49.426;11.182;2022-08-03T12:54:17;1.30;;;1.30;;
11537;SDS011;50159;49.426;11.182;2022-08-03T12:59:28;1.00;;;1.00;;
11537;SDS011;50159;49.426;11.182;2022-08-03T13:02:01;1.13;;;1.13;;
11537;SDS011;50159;49.426;11.182;2022-08-03T13:04:35;1.40;;;1.30;;
11537;SDS011;50159;49.426;11.182;2022-08-03T13:07:03;1.07;;;1.07;;
11537;SDS011;50159;49.426;11.182;2022-08-03T13:09:53;0.90;;;0.90;;
11537;SDS011;50159;49.426;11.182;2022-08-03T13:12:22;1.13;;;1.10;;
11537;SDS011;50159;49.426;11.182;2022-08-03T13:14:55;1.00;;;1.00;;
11537;SDS011;50159;49.426;11.182;2022-08-03T13:17:25;1.10;;;1.10;;
11537;SDS011;50159;49.426;11.182;2022-08-03T13:19:53;1.03;;;1.03;;
11537;SDS011;50159;49.426;11.182;2022-08-03T13:22:21;1.10;;;1.10;;
11537;SDS011;50159;49.426;11.182;2022-08-03T13:24:51;1.00;;;1.00;;
11537;SDS011;50159;49.426;11.182;2022-08-03T13:27:23;2.00;;;1.37;;
11537;SDS011;50159;49.426;11.182;2022-08-03T13:30:11;0.93;;;0.93;;
11537;SDS011;50159;49.426;11.182;2022-08-03T13:32:38;1.10;;;1.10;;
11537;SDS011;50159;49.426;11.182;2022-08-03T13:35:05;1.30;;;1.30;;
11537;SDS011;50159;49.426;11.182;2022-08-03T13:37:34;0.90;;;0.90;;
11537;SDS011;50159;49.426;11.182;2022-08-03T13:40:03;1.13;;;1.07;;
11537;SDS011;50159;49.426;11.182;2022-08-03T13:42:33;1.23;;;1.23;;
11537;SDS011;50159;49.426;11.182;2022-08-03T13:45:01;1.53;;;1.00;;
11537;SDS011;50159;49.426;11.182;2022-08-03T13:47:29;1.03;;;1.03;;
11537;SDS011;50159;49.426;11.182;2022-08-03T13:49:57;0.93;;;0.93;;
11537;SDS011;50159;49.426;11.182;2022-08-03T13:52:27;1.20;;;1.20;;
11537;SDS011;50159;49.426;11.182;2022-08-03T13:54:56;1.10;;;1.10;;
11537;SDS011;50159;49.426;11.182;2022-08-03T13:57:23;0.90;;;0.90;;
11537;SDS011;50159;49.426;11.182;2022-08-03T14:00:10;1.30;;;1.00;;
11537;SDS011;50159;49.426;11.182;2022-08-03T14:02:51;0.90;;;0.90;;
11537;SDS011;50159;49.426;11.182;2022-08-03T14:05:21;0.87;;;0.87;;
11537;SDS011;50159;49.426;11.182;2022-08-03T14:07:48;0.93;;;0.93;;
11537;SDS011;50159;49.426;11.182;2022-08-03T14:10:15;0.80;;;0.80;;
11537;SDS011;50159;49.426;11.182;2022-08-03T14:12:42;1.33;;;0.93;;
11537;SDS011;50159;49.426;11.182;2022-08-03T14:15:09;0.90;;;0.90;;
11537;SDS011;50159;49.426;11.182;2022-08-03T14:17:38;1.00;;;1.00;;
11537;SDS011;50159;49.426;11.182;2022-08-03T14:20:15;0.93;;;0.93;;
11537;SDS011;50159;49.426;11.182;2022-08-03T14:23:02;0.93;;;0.93;;
11537;SDS011;50159;49.426;11.182;2022-08-03T14:25:29;1.20;;;1.20;;
11537;SDS011;50159;49.426;11.182;2022-08-03T14:28:08;1.17;;;0.97;;
11537;SDS011;50159;49.426;11.182;2022-08-03T14:30:35;1.30;;;1.10;;
11537;SDS011;50159;49.426;11.182;2022-08-03T14:33:02;1.23;;;1.23;;
11537;SDS011;50159;49.426;11.182;2022-08-03T14:35:29;1.40;;;0.80;;
11537;SDS011;50159;49.426;11.182;2022-08-03T14:37:56;1.13;;;1.10;;
11537;SDS011;50159;49.426;11.182;2022-08-03T14:40:23;1.00;;;1.00;;
11537;SDS011;50159;49.426;11.182;2022-08-03T14:42:49;0.90;;;0.90;;
11537;SDS011;50159;49.426;11.182;2022-08-03T14:45:16;0.85;;;0.85;;
11537;SDS011;50159;49.426;11.182;2022-08-03T14:47:45;0.77;;;0.77;;
11537;SDS011;50159;49.426;11.182;2022-08-03T14:50:32;1.38;;;0.90;;
11537;SDS011;50159;49.426;11.182;2022-08-03T14:53:09;3.25;;;1.00;;
11537;SDS011;50159;49.426;11.182;2022-08-03T14:55:36;1.00;;;1.00;;
11537;SDS011;50159;49.426;11.182;2022-08-03T14:58:16;0.90;;;0.90;;
11537;SDS011;50159;49.426;11.182;2022-08-03T15:00:48;0.90;;;0.90;;
11537;SDS011;50159;49.426;11.182;2022-08-03T15:03:19;1.10;;;1.10;;
11537;SDS011;50159;49.426;11.182;2022-08-03T15:05:51;1.05;;;0.98;;
11537;SDS011;50159;49.426;11.182;2022-08-03T15:08:21;1.85;;;0.80;;
11537;SDS011;50159;49.426;11.182;2022-08-03T15:10:50;0.90;;;0.90;;
11537;SDS011;50159;49.426;11.182;2022-08-03T15:13:18;1.00;;;1.00;;
11537;SDS011;50159;49.426;11.182;2022-08-03T15:15:46;1.40;;;0.90;;
11537;SDS011;50159;49.426;11.182;2022-08-03T15:18:14;0.88;;;0.88;;
11537;SDS011;50159;49.426;11.182;2022-08-03T15:20:41;3.30;;;1.63;;
11537;SDS011;50159;49.426;11.182;2022-08-03T15:23:12;0.82;;;0.82;;
11537;SDS011;50159;49.426;11.182;2022-08-03T15:25:40;0.88;;;0.88;;
11537;SDS011;50159;49.426;11.182;2022-08-03T15:28:29;0.93;;;0.93;;
11537;SDS011;50159;49.426;11.182;2022-08-03T15:30:56;2.58;;;0.90;;
11537;SDS011;50159;49.426;11.182;2022-08-03T15:33:23;1.10;;;1.10;;
11537;SDS011;50159;49.426;11.182;2022-08-03T15:35:50;0.80;;;0.80;;
11537;SDS011;50159;49.426;11.182;2022-08-03T15:38:18;1.02;;;1.02;;
11537;SDS011;50159;49.426;11.182;2022-08-03T15:40:45;1.10;;;1.10;;
11537;SDS011;50159;49.426;11.182;2022-08-03T15:43:11;1.08;;;1.02;;
11537;SDS011;50159;49.426;11.182;2022-08-03T15:45:38;0.90;;;0.90;;
11537;SDS011;50159;49.426;11.182;2022-08-03T15:48:07;0.93;;;0.93;;
11537;SDS011;50159;49.426;11.182;2022-08-03T15:50:34;1.30;;;1.27;;